createdAt,value
2023-04-04T00:01:49.588Z,62.97
2023-04-04T00:06:56.059Z,63.21
2023-04-04T00:12:01.640Z,63.20
2023-04-04T00:17:07.465Z,63.19
2023-04-04T00:22:14.708Z,63.24
2023-04-04T00:27:20.388Z,63.17
2023-04-04T00:32:26.294Z,63.15
2023-04-04T00:37:32.041Z,63.55
2023-04-04T00:42:37.782Z,63.58
2023-04-04T00:47:45.663Z,63.50
2023-04-04T00:52:51.634Z,63.75
2023-04-04T00:57:57.405Z,63.59
2023-04-04T01:03:04.057Z,63.96
2023-04-04T01:08:09.662Z,63.96
2023-04-04T01:13:16.597Z,64.35
2023-04-04T01:18:25.054Z,64.33
2023-04-04T01:23:48.535Z,64.39
2023-04-04T01:28:58.908Z,64.46
2023-04-04T01:34:16.831Z,64.45
2023-04-04T01:39:28.088Z,64.51
2023-04-04T01:44:33.984Z,64.85
2023-04-04T01:49:39.765Z,65.13
2023-04-04T01:54:45.463Z,65.11
2023-04-04T01:59:51.137Z,65.24
2023-04-04T02:04:56.836Z,65.46
2023-04-04T02:10:02.433Z,65.35
2023-04-04T02:15:09.027Z,65.73
2023-04-04T02:20:14.505Z,65.86
2023-04-04T02:25:20.861Z,66.14
2023-04-04T02:30:27.304Z,66.58
2023-04-04T02:35:33.172Z,66.44
2023-04-04T02:40:40.960Z,66.65
2023-04-04T02:45:51.463Z,66.68
2023-04-04T02:50:58.839Z,66.75
2023-04-04T02:56:05.354Z,66.76
2023-04-04T03:01:11.118Z,67.17
2023-04-04T03:06:17.067Z,67.39
2023-04-04T03:11:24.318Z,67.33
2023-04-04T03:16:31.303Z,67.43
2023-04-04T03:21:37.062Z,67.66
2023-04-04T03:26:42.624Z,67.90
2023-04-04T03:31:48.746Z,68.01
2023-04-04T03:36:54.461Z,68.26
2023-04-04T03:42:01.484Z,68.64
2023-04-04T03:47:07.184Z,68.80
2023-04-04T03:52:13.032Z,68.90
2023-04-04T03:57:18.790Z,68.96
2023-04-04T04:02:24.442Z,69.18
2023-04-04T04:07:30.090Z,69.28
2023-04-04T04:12:36.799Z,69.46
2023-04-04T04:17:42.734Z,69.61
2023-04-04T04:22:51.015Z,69.57
2023-04-04T04:27:58.082Z,69.86
2023-04-04T04:33:04.584Z,69.82
2023-04-04T04:38:12.877Z,69.52
2023-04-04T04:43:19.082Z,69.67
2023-04-04T04:48:26.344Z,69.86
2023-04-04T04:53:33.549Z,70.04
2023-04-04T04:58:39.072Z,70.52
2023-04-04T05:03:46.870Z,70.58
2023-04-04T05:08:54.062Z,70.46
2023-04-04T05:14:02.075Z,70.35
2023-04-04T05:19:09.279Z,70.53
2023-04-04T05:24:17.518Z,70.65
2023-04-04T05:29:23.152Z,70.68
2023-04-04T05:34:30.216Z,70.88
2023-04-04T05:39:36.757Z,70.94
2023-04-04T05:44:44.704Z,71.11
2023-04-04T05:49:50.692Z,71.37
2023-04-04T05:54:57.564Z,71.43
2023-04-04T06:00:06.227Z,71.42
2023-04-04T06:05:13.541Z,71.39
2023-04-04T06:10:19.294Z,71.59
2023-04-04T06:15:25.594Z,71.39
2023-04-04T06:20:31.327Z,70.80
2023-04-04T06:25:39.981Z,70.98
2023-04-04T06:30:46.142Z,70.84
2023-04-04T06:35:53.251Z,70.56
2023-04-04T06:40:59.542Z,70.41
2023-04-04T06:46:05.542Z,70.01
2023-04-04T06:51:11.654Z,69.69
2023-04-04T06:56:18.855Z,69.02
2023-04-04T07:01:24.457Z,68.26
2023-04-04T07:06:29.990Z,68.65
2023-04-04T07:11:35.564Z,67.81
2023-04-04T07:16:41.054Z,66.76
2023-04-04T07:21:46.690Z,66.76
2023-04-04T07:26:52.440Z,67.25
2023-04-04T07:31:58.074Z,66.90
2023-04-04T07:37:03.895Z,66.46
2023-04-04T07:42:18.543Z,67.03
2023-04-04T07:47:24.087Z,65.35
2023-04-04T07:52:29.692Z,65.03
2023-04-04T07:57:39.831Z,66.06
2023-04-04T08:02:45.798Z,63.48
2023-04-04T08:07:51.498Z,64.15
2023-04-04T08:12:59.159Z,65.19
2023-04-04T08:18:04.840Z,64.51
2023-04-04T08:23:10.975Z,62.28
2023-04-04T08:28:16.500Z,63.06
2023-04-04T08:33:34.255Z,61.76
2023-04-04T08:38:32.992Z,61.71
2023-04-04T08:43:41.645Z,61.17
2023-04-04T08:48:48.786Z,60.62
2023-04-04T08:53:55.373Z,59.88
2023-04-04T08:59:01.123Z,60.85
2023-04-04T09:04:07.497Z,60.14
2023-04-04T09:09:14.735Z,58.51
2023-04-04T09:14:22.297Z,57.80
2023-04-04T09:19:27.738Z,57.31
2023-04-04T09:24:43.806Z,58.75
2023-04-04T09:29:50.047Z,54.88
2023-04-04T09:34:56.616Z,55.46
2023-04-04T09:40:03.079Z,55.80
2023-04-04T09:45:11.674Z,51.79
2023-04-04T09:50:24.933Z,53.56
2023-04-04T09:55:36.647Z,53.53
2023-04-04T10:00:44.976Z,53.73
2023-04-04T10:06:06.987Z,52.01
2023-04-04T10:11:12.829Z,51.76
2023-04-04T10:16:20.111Z,51.98
2023-04-04T10:21:25.728Z,52.19
2023-04-04T10:26:31.450Z,51.02
2023-04-04T10:31:41.162Z,50.72
2023-04-04T10:37:13.153Z,50.67
2023-04-04T10:42:20.133Z,51.75
2023-04-04T10:47:29.501Z,50.43
2023-04-04T10:52:36.335Z,48.57
2023-04-04T10:57:44.890Z,48.66
2023-04-04T11:02:57.080Z,49.67
2023-04-04T11:08:08.556Z,48.43
2023-04-04T11:13:21.810Z,49.52
2023-04-04T11:18:42.420Z,47.91
2023-04-04T11:24:02.274Z,48.23
2023-04-04T11:29:12.886Z,47.94
2023-04-04T11:34:32.751Z,47.86
2023-04-04T11:39:41.302Z,48.54
2023-04-04T11:45:04.432Z,47.72
2023-04-04T11:50:12.767Z,47.53
2023-04-04T11:55:20.147Z,48.05
2023-04-04T12:00:36.057Z,47.43
2023-04-04T12:05:44.023Z,45.23
2023-04-04T12:10:51.169Z,46.40
2023-04-04T12:15:57.831Z,45.53
2023-04-04T12:21:03.704Z,46.45
2023-04-04T12:26:11.373Z,45.90
2023-04-04T12:31:17.942Z,45.67
2023-04-04T12:36:29.918Z,44.46
2023-04-04T12:41:36.929Z,45.18
2023-04-04T12:46:47.789Z,44.96
2023-04-04T12:51:55.288Z,44.49
2023-04-04T12:57:04.204Z,44.52
2023-04-04T13:02:12.515Z,43.98
2023-04-04T13:07:28.829Z,44.68
2023-04-04T13:12:57.128Z,46.70
2023-04-04T13:18:05.769Z,45.48
2023-04-04T13:23:11.659Z,44.85
2023-04-04T13:28:17.337Z,45.15
2023-04-04T13:33:22.835Z,44.61
2023-04-04T13:38:29.899Z,44.41
2023-04-04T13:43:35.488Z,43.51
2023-04-04T13:48:42.010Z,44.63
2023-04-04T13:53:49.277Z,43.85
2023-04-04T13:58:54.907Z,43.05
2023-04-04T14:04:05.261Z,43.03
2023-04-04T14:09:07.756Z,43.74
2023-04-04T14:14:13.369Z,44.69
2023-04-04T14:19:18.832Z,45.69
2023-04-04T14:24:24.671Z,44.52
2023-04-04T14:29:30.167Z,45.09
2023-04-04T14:34:35.659Z,43.13
2023-04-04T14:39:41.098Z,42.91
2023-04-04T14:44:46.706Z,42.95
2023-04-04T14:49:54.189Z,40.97
2023-04-04T14:55:01.094Z,40.70
2023-04-04T15:00:08.009Z,40.25
2023-04-04T15:05:14.504Z,39.56
2023-04-04T15:10:20.076Z,39.52
2023-04-04T15:15:29.121Z,39.05
2023-04-04T15:20:37.986Z,38.81
2023-04-04T15:25:43.539Z,38.23
2023-04-04T15:30:49.174Z,38.14
2023-04-04T15:35:54.774Z,37.78
2023-04-04T15:41:00.665Z,37.29
2023-04-04T15:46:06.643Z,36.54
2023-04-04T15:51:12.619Z,36.28
2023-04-04T15:56:18.039Z,36.34
2023-04-04T16:01:24.202Z,37.03
2023-04-04T16:06:31.343Z,36.75
2023-04-04T16:11:37.231Z,37.42
2023-04-04T16:16:42.871Z,37.78
2023-04-04T16:21:49.452Z,37.35
2023-04-04T16:26:54.906Z,37.30
2023-04-04T16:32:00.683Z,38.24
2023-04-04T16:37:06.557Z,37.14
2023-04-04T16:42:12.081Z,37.28
2023-04-04T16:47:17.519Z,37.42
2023-04-04T16:52:23.162Z,37.67
2023-04-04T16:57:28.808Z,38.37
2023-04-04T17:02:34.457Z,38.70
2023-04-04T17:07:40.078Z,38.74
2023-04-04T17:12:45.895Z,38.97
2023-04-04T17:17:52.201Z,38.95
2023-04-04T17:22:57.941Z,39.37
2023-04-04T17:28:04.607Z,39.60
2023-04-04T17:33:10.189Z,40.14
2023-04-04T17:38:16.016Z,40.46
2023-04-04T17:43:22.234Z,40.59
2023-04-04T17:48:29.726Z,41.14
2023-04-04T17:53:35.162Z,41.40
2023-04-04T17:58:41.935Z,41.28
2023-04-04T18:03:47.835Z,41.67
2023-04-04T18:08:53.473Z,41.93
2023-04-04T18:13:59.065Z,42.38
2023-04-04T18:19:04.604Z,42.67
2023-04-04T18:24:11.974Z,42.91
2023-04-04T18:29:17.666Z,43.00
2023-04-04T18:34:23.178Z,43.17
2023-04-04T18:39:29.253Z,44.00
2023-04-04T18:44:35.032Z,43.92
2023-04-04T18:49:41.009Z,44.28
2023-04-04T18:54:47.194Z,44.24
2023-04-04T18:59:52.862Z,44.39
2023-04-04T19:05:00.968Z,44.43
2023-04-04T19:10:08.177Z,45.03
2023-04-04T19:15:13.850Z,45.03
2023-04-04T19:20:19.917Z,45.68
2023-04-04T19:25:25.707Z,45.68
2023-04-04T19:30:49.136Z,46.17
2023-04-04T19:36:01.209Z,46.17
2023-04-04T19:41:32.439Z,46.70
2023-04-04T19:46:38.160Z,47.11
2023-04-04T19:51:57.652Z,47.82
2023-04-04T19:57:09.538Z,48.25
2023-04-04T20:02:39.104Z,49.26
2023-04-04T20:07:44.876Z,48.97
2023-04-04T20:12:50.573Z,49.11
2023-04-04T20:17:56.143Z,49.47
2023-04-04T20:23:03.884Z,49.59
2023-04-04T20:28:09.638Z,49.69
2023-04-04T20:33:39.211Z,49.68
2023-04-04T20:38:45.163Z,49.70
2023-04-04T20:43:53.286Z,49.90
2023-04-04T20:49:00.261Z,50.34
2023-04-04T20:54:08.209Z,50.01
2023-04-04T20:59:34.668Z,50.01
2023-04-04T21:04:42.145Z,50.27
2023-04-04T21:09:47.704Z,50.38
2023-04-04T21:14:53.360Z,50.40
2023-04-04T21:19:59.235Z,50.43
2023-04-04T21:25:07.813Z,50.27
2023-04-04T21:30:16.269Z,49.78
2023-04-04T21:35:24.743Z,49.87
2023-04-04T21:40:31.665Z,49.82
2023-04-04T21:45:37.081Z,49.51
2023-04-04T21:50:42.686Z,49.02
2023-04-04T21:55:48.403Z,49.09
2023-04-04T22:00:53.939Z,48.61
2023-04-04T22:05:59.610Z,48.61
2023-04-04T22:11:05.993Z,48.48
2023-04-04T22:16:13.114Z,48.48
2023-04-04T22:21:21.106Z,48.26
2023-04-04T22:26:31.122Z,48.26
2023-04-04T22:31:38.018Z,48.37
2023-04-04T22:36:44.134Z,48.46
2023-04-04T22:41:49.800Z,48.52
2023-04-04T22:46:56.961Z,48.46
2023-04-04T22:52:04.037Z,48.66
2023-04-04T22:57:09.725Z,48.77
2023-04-04T23:02:15.177Z,49.06
2023-04-04T23:07:22.107Z,49.06
2023-04-04T23:12:27.711Z,49.13
2023-04-04T23:17:33.719Z,49.13
2023-04-04T23:22:39.993Z,49.56
2023-04-04T23:27:45.841Z,49.56
2023-04-04T23:32:51.526Z,49.83
2023-04-04T23:37:57.038Z,50.08
2023-04-04T23:43:02.536Z,49.97
2023-04-04T23:48:08.229Z,50.39
2023-04-04T23:53:14.271Z,50.39
2023-04-04T23:58:19.702Z,50.21
